sensor_id;sensor_type;location;lat;lon;timestamp;P1;durP1;ratioP1;P2;durP2;ratioP2
38937;SDS011;24727;51.974;20.868;2022-10-16T00:01:13;20.55;;;13.02;;
38937;SDS011;24727;51.974;20.868;2022-10-16T00:03:41;19.73;;;13.10;;
38937;SDS011;24727;51.974;20.868;2022-10-16T00:06:10;23.23;;;13.95;;
38937;SDS011;24727;51.974;20.868;2022-10-16T00:08:37;20.23;;;13.85;;
38937;SDS011;24727;51.974;20.868;2022-10-16T00:11:14;18.48;;;12.65;;
38937;SDS011;24727;51.974;20.868;2022-10-16T00:13:46;19.55;;;12.70;;
38937;SDS011;24727;51.974;20.868;2022-10-16T00:16:14;21.95;;;13.13;;
38937;SDS011;24727;51.974;20.868;2022-10-16T00:18:41;18.95;;;12.68;;
38937;SDS011;24727;51.974;20.868;2022-10-16T00:21:09;16.08;;;11.85;;
38937;SDS011;24727;51.974;20.868;2022-10-16T00:23:37;21.05;;;14.20;;
38937;SDS011;24727;51.974;20.868;2022-10-16T00:26:05;21.95;;;12.90;;
38937;SDS011;24727;51.974;20.868;2022-10-16T00:28:34;22.00;;;13.85;;
38937;SDS011;24727;51.974;20.868;2022-10-16T00:31:07;17.15;;;11.93;;
38937;SDS011;24727;51.974;20.868;2022-10-16T00:33:36;20.48;;;12.30;;
38937;SDS011;24727;51.974;20.868;2022-10-16T00:36:03;21.10;;;11.77;;
38937;SDS011;24727;51.974;20.868;2022-10-16T00:38:30;22.23;;;11.75;;
38937;SDS011;24727;51.974;20.868;2022-10-16T00:40:57;20.05;;;11.63;;
38937;SDS011;24727;51.974;20.868;2022-10-16T00:51:35;19.67;;;12.95;;
38937;SDS011;24727;51.974;20.868;2022-10-16T00:54:10;19.05;;;12.02;;
38937;SDS011;24727;51.974;20.868;2022-10-16T00:56:42;20.42;;;12.40;;
38937;SDS011;24727;51.974;20.868;2022-10-16T00:59:16;20.48;;;12.75;;
38937;SDS011;24727;51.974;20.868;2022-10-16T01:01:54;16.77;;;11.90;;
38937;SDS011;24727;51.974;20.868;2022-10-16T01:04:25;17.75;;;12.80;;
38937;SDS011;24727;51.974;20.868;2022-10-16T01:07:14;13.55;;;10.50;;
38937;SDS011;24727;51.974;20.868;2022-10-16T01:10:07;14.82;;;10.95;;
38937;SDS011;24727;51.974;20.868;2022-10-16T01:15:55;22.58;;;12.60;;
38937;SDS011;24727;51.974;20.868;2022-10-16T01:18:50;20.42;;;12.07;;
38937;SDS011;24727;51.974;20.868;2022-10-16T01:21:23;22.15;;;12.13;;
38937;SDS011;24727;51.974;20.868;2022-10-16T01:29:39;17.67;;;12.18;;
38937;SDS011;24727;51.974;20.868;2022-10-16T01:38:38;19.33;;;12.35;;
38937;SDS011;24727;51.974;20.868;2022-10-16T01:40:49;17.17;;;11.70;;
38937;SDS011;24727;51.974;20.868;2022-10-16T01:43:22;16.20;;;12.07;;
38937;SDS011;24727;51.974;20.868;2022-10-16T01:46:01;18.60;;;11.85;;
38937;SDS011;24727;51.974;20.868;2022-10-16T01:48:28;16.42;;;11.38;;
38937;SDS011;24727;51.974;20.868;2022-10-16T01:51:15;15.93;;;11.82;;
38937;SDS011;24727;51.974;20.868;2022-10-16T01:53:45;23.60;;;12.20;;
38937;SDS011;24727;51.974;20.868;2022-10-16T01:56:15;22.08;;;13.68;;
38937;SDS011;24727;51.974;20.868;2022-10-16T01:58:47;19.63;;;12.23;;
38937;SDS011;24727;51.974;20.868;2022-10-16T02:01:45;19.33;;;12.38;;
38937;SDS011;24727;51.974;20.868;2022-10-16T02:04:36;19.02;;;12.13;;
38937;SDS011;24727;51.974;20.868;2022-10-16T02:07:08;23.55;;;11.98;;
38937;SDS011;24727;51.974;20.868;2022-10-16T02:09:34;16.83;;;11.15;;
38937;SDS011;24727;51.974;20.868;2022-10-16T02:12:03;18.33;;;12.27;;
38937;SDS011;24727;51.974;20.868;2022-10-16T02:14:36;17.52;;;11.98;;
38937;SDS011;24727;51.974;20.868;2022-10-16T02:17:14;17.95;;;11.80;;
38937;SDS011;24727;51.974;20.868;2022-10-16T02:19:42;15.82;;;11.95;;
38937;SDS011;24727;51.974;20.868;2022-10-16T02:30:30;20.27;;;12.40;;
38937;SDS011;24727;51.974;20.868;2022-10-16T02:33:14;25.52;;;12.88;;
38937;SDS011;24727;51.974;20.868;2022-10-16T02:35:43;22.85;;;12.35;;
38937;SDS011;24727;51.974;20.868;2022-10-16T02:38:11;17.42;;;11.77;;
38937;SDS011;24727;51.974;20.868;2022-10-16T02:40:39;19.40;;;12.82;;
38937;SDS011;24727;51.974;20.868;2022-10-16T02:43:06;20.70;;;13.50;;
38937;SDS011;24727;51.974;20.868;2022-10-16T02:45:34;19.83;;;13.23;;
38937;SDS011;24727;51.974;20.868;2022-10-16T02:48:00;21.25;;;13.27;;
38937;SDS011;24727;51.974;20.868;2022-10-16T02:50:27;23.73;;;14.23;;
38937;SDS011;24727;51.974;20.868;2022-10-16T02:52:53;45.33;;;24.52;;
38937;SDS011;24727;51.974;20.868;2022-10-16T02:55:19;42.70;;;23.98;;
38937;SDS011;24727;51.974;20.868;2022-10-16T02:57:46;34.83;;;22.92;;
38937;SDS011;24727;51.974;20.868;2022-10-16T03:00:13;25.10;;;16.75;;
38937;SDS011;24727;51.974;20.868;2022-10-16T03:02:41;25.05;;;18.33;;
38937;SDS011;24727;51.974;20.868;2022-10-16T03:05:09;29.13;;;19.10;;
38937;SDS011;24727;51.974;20.868;2022-10-16T03:07:36;28.58;;;17.00;;
38937;SDS011;24727;51.974;20.868;2022-10-16T03:10:03;17.70;;;12.73;;
38937;SDS011;24727;51.974;20.868;2022-10-16T03:12:30;16.40;;;12.13;;
38937;SDS011;24727;51.974;20.868;2022-10-16T03:14:56;20.67;;;13.90;;
38937;SDS011;24727;51.974;20.868;2022-10-16T03:17:22;16.48;;;12.00;;
38937;SDS011;24727;51.974;20.868;2022-10-16T03:19:49;16.65;;;12.05;;
38937;SDS011;24727;51.974;20.868;2022-10-16T03:22:15;17.52;;;12.80;;
38937;SDS011;24727;51.974;20.868;2022-10-16T03:24:41;22.10;;;12.82;;
38937;SDS011;24727;51.974;20.868;2022-10-16T03:27:08;18.85;;;13.13;;
38937;SDS011;24727;51.974;20.868;2022-10-16T03:29:34;17.83;;;12.13;;
38937;SDS011;24727;51.974;20.868;2022-10-16T03:32:00;17.88;;;11.43;;
38937;SDS011;24727;51.974;20.868;2022-10-16T03:34:26;17.50;;;12.45;;
38937;SDS011;24727;51.974;20.868;2022-10-16T03:36:54;20.27;;;13.45;;
38937;SDS011;24727;51.974;20.868;2022-10-16T03:39:19;16.73;;;12.38;;
38937;SDS011;24727;51.974;20.868;2022-10-16T03:41:46;18.33;;;11.32;;
38937;SDS011;24727;51.974;20.868;2022-10-16T03:44:13;17.17;;;12.38;;
38937;SDS011;24727;51.974;20.868;2022-10-16T03:46:38;18.63;;;12.65;;
38937;SDS011;24727;51.974;20.868;2022-10-16T03:49:05;17.58;;;12.13;;
38937;SDS011;24727;51.974;20.868;2022-10-16T03:51:31;16.38;;;12.52;;
38937;SDS011;24727;51.974;20.868;2022-10-16T03:53:57;23.98;;;16.02;;
38937;SDS011;24727;51.974;20.868;2022-10-16T03:56:24;20.80;;;15.55;;
38937;SDS011;24727;51.974;20.868;2022-10-16T03:58:50;20.42;;;14.68;;
38937;SDS011;24727;51.974;20.868;2022-10-16T04:01:17;20.42;;;13.55;;
38937;SDS011;24727;51.974;20.868;2022-10-16T04:03:43;18.73;;;14.07;;
38937;SDS011;24727;51.974;20.868;2022-10-16T04:06:09;25.25;;;16.95;;
38937;SDS011;24727;51.974;20.868;2022-10-16T04:08:36;17.65;;;12.85;;
38937;SDS011;24727;51.974;20.868;2022-10-16T04:11:02;19.08;;;13.68;;
38937;SDS011;24727;51.974;20.868;2022-10-16T04:13:28;23.33;;;15.13;;
38937;SDS011;24727;51.974;20.868;2022-10-16T04:15:55;22.33;;;15.38;;
38937;SDS011;24727;51.974;20.868;2022-10-16T04:18:21;19.73;;;14.13;;
38937;SDS011;24727;51.974;20.868;2022-10-16T04:20:48;19.52;;;13.73;;
38937;SDS011;24727;51.974;20.868;2022-10-16T04:23:15;21.40;;;13.80;;
38937;SDS011;24727;51.974;20.868;2022-10-16T04:25:41;22.80;;;15.05;;
38937;SDS011;24727;51.974;20.868;2022-10-16T04:28:07;25.77;;;16.58;;
38937;SDS011;24727;51.974;20.868;2022-10-16T04:30:33;20.40;;;13.60;;
38937;SDS011;24727;51.974;20.868;2022-10-16T04:33:00;19.80;;;13.95;;
38937;SDS011;24727;51.974;20.868;2022-10-16T04:35:26;25.00;;;15.00;;
38937;SDS011;24727;51.974;20.868;2022-10-16T04:37:52;23.30;;;15.13;;
38937;SDS011;24727;51.974;20.868;2022-10-16T04:40:18;22.55;;;14.27;;
38937;SDS011;24727;51.974;20.868;2022-10-16T04:42:44;22.98;;;13.95;;
38937;SDS011;24727;51.974;20.868;2022-10-16T04:45:10;25.98;;;15.13;;
38937;SDS011;24727;51.974;20.868;2022-10-16T04:47:36;21.02;;;14.55;;
38937;SDS011;24727;51.974;20.868;2022-10-16T04:50:04;18.73;;;12.85;;
38937;SDS011;24727;51.974;20.868;2022-10-16T04:52:31;21.00;;;15.32;;
38937;SDS011;24727;51.974;20.868;2022-10-16T04:54:58;16.80;;;12.43;;
38937;SDS011;24727;51.974;20.868;2022-10-16T04:57:27;23.65;;;15.07;;
38937;SDS011;24727;51.974;20.868;2022-10-16T04:59:54;21.27;;;14.18;;
38937;SDS011;24727;51.974;20.868;2022-10-16T05:02:20;21.30;;;15.30;;
38937;SDS011;24727;51.974;20.868;2022-10-16T05:04:47;19.77;;;13.82;;
38937;SDS011;24727;51.974;20.868;2022-10-16T05:07:12;24.92;;;15.50;;
38937;SDS011;24727;51.974;20.868;2022-10-16T05:09:38;25.40;;;14.90;;
38937;SDS011;24727;51.974;20.868;2022-10-16T05:12:04;24.90;;;15.25;;
38937;SDS011;24727;51.974;20.868;2022-10-16T05:14:30;23.70;;;15.45;;
38937;SDS011;24727;51.974;20.868;2022-10-16T05:16:57;23.27;;;14.63;;
38937;SDS011;24727;51.974;20.868;2022-10-16T05:19:33;22.05;;;15.52;;
38937;SDS011;24727;51.974;20.868;2022-10-16T05:21:59;19.98;;;13.68;;
38937;SDS011;24727;51.974;20.868;2022-10-16T05:24:26;26.92;;;15.02;;
38937;SDS011;24727;51.974;20.868;2022-10-16T05:26:52;22.17;;;14.05;;
38937;SDS011;24727;51.974;20.868;2022-10-16T05:29:18;19.63;;;13.82;;
38937;SDS011;24727;51.974;20.868;2022-10-16T05:31:44;25.10;;;15.57;;
38937;SDS011;24727;51.974;20.868;2022-10-16T05:34:10;22.55;;;14.00;;
38937;SDS011;24727;51.974;20.868;2022-10-16T05:36:36;19.60;;;13.93;;
38937;SDS011;24727;51.974;20.868;2022-10-16T05:39:02;24.17;;;15.52;;
38937;SDS011;24727;51.974;20.868;2022-10-16T05:41:29;22.17;;;15.65;;
38937;SDS011;24727;51.974;20.868;2022-10-16T05:43:55;20.50;;;14.88;;
38937;SDS011;24727;51.974;20.868;2022-10-16T05:46:21;23.58;;;15.63;;
38937;SDS011;24727;51.974;20.868;2022-10-16T05:48:47;18.95;;;12.57;;
38937;SDS011;24727;51.974;20.868;2022-10-16T05:51:14;23.20;;;15.18;;
38937;SDS011;24727;51.974;20.868;2022-10-16T05:53:41;21.95;;;14.65;;
38937;SDS011;24727;51.974;20.868;2022-10-16T05:56:08;22.45;;;13.45;;
38937;SDS011;24727;51.974;20.868;2022-10-16T05:58:36;19.15;;;14.85;;
38937;SDS011;24727;51.974;20.868;2022-10-16T06:01:04;25.33;;;15.35;;
38937;SDS011;24727;51.974;20.868;2022-10-16T06:03:41;20.98;;;14.30;;
38937;SDS011;24727;51.974;20.868;2022-10-16T06:06:10;27.00;;;15.30;;
38937;SDS011;24727;51.974;20.868;2022-10-16T06:08:39;23.83;;;15.65;;
38937;SDS011;24727;51.974;20.868;2022-10-16T06:11:06;22.02;;;14.25;;
38937;SDS011;24727;51.974;20.868;2022-10-16T06:13:36;20.55;;;15.02;;
38937;SDS011;24727;51.974;20.868;2022-10-16T06:16:03;21.27;;;15.80;;
38937;SDS011;24727;51.974;20.868;2022-10-16T06:18:30;24.70;;;14.57;;
38937;SDS011;24727;51.974;20.868;2022-10-16T06:20:56;23.00;;;13.68;;
38937;SDS011;24727;51.974;20.868;2022-10-16T06:23:23;23.77;;;15.38;;
38937;SDS011;24727;51.974;20.868;2022-10-16T06:25:50;22.08;;;14.95;;
38937;SDS011;24727;51.974;20.868;2022-10-16T06:28:18;19.98;;;13.98;;
38937;SDS011;24727;51.974;20.868;2022-10-16T06:30:43;19.75;;;12.90;;
38937;SDS011;24727;51.974;20.868;2022-10-16T06:33:12;22.25;;;13.30;;
38937;SDS011;24727;51.974;20.868;2022-10-16T06:35:38;19.30;;;12.93;;
38937;SDS011;24727;51.974;20.868;2022-10-16T06:38:05;21.67;;;13.20;;
38937;SDS011;24727;51.974;20.868;2022-10-16T06:40:31;17.70;;;13.73;;
38937;SDS011;24727;51.974;20.868;2022-10-16T06:42:58;22.35;;;13.82;;
38937;SDS011;24727;51.974;20.868;2022-10-16T06:45:24;19.73;;;13.18;;
38937;SDS011;24727;51.974;20.868;2022-10-16T06:47:49;18.10;;;12.60;;
38937;SDS011;24727;51.974;20.868;2022-10-16T06:50:15;17.35;;;12.05;;
38937;SDS011;24727;51.974;20.868;2022-10-16T06:52:41;13.93;;;11.52;;
38937;SDS011;24727;51.974;20.868;2022-10-16T06:55:07;17.00;;;12.50;;
38937;SDS011;24727;51.974;20.868;2022-10-16T06:57:34;25.88;;;13.10;;
38937;SDS011;24727;51.974;20.868;2022-10-16T07:00:00;19.23;;;12.50;;
38937;SDS011;24727;51.974;20.868;2022-10-16T07:02:27;19.80;;;12.07;;
38937;SDS011;24727;51.974;20.868;2022-10-16T07:04:52;21.88;;;12.98;;
38937;SDS011;24727;51.974;20.868;2022-10-16T07:07:19;19.45;;;12.65;;
38937;SDS011;24727;51.974;20.868;2022-10-16T07:09:45;21.23;;;13.00;;
38937;SDS011;24727;51.974;20.868;2022-10-16T07:12:12;15.98;;;12.65;;
38937;SDS011;24727;51.974;20.868;2022-10-16T07:14:38;18.60;;;12.05;;
38937;SDS011;24727;51.974;20.868;2022-10-16T07:17:05;20.85;;;12.32;;
38937;SDS011;24727;51.974;20.868;2022-10-16T07:19:31;20.35;;;12.40;;
38937;SDS011;24727;51.974;20.868;2022-10-16T07:21:57;15.02;;;11.15;;
38937;SDS011;24727;51.974;20.868;2022-10-16T07:24:23;18.27;;;12.32;;
38937;SDS011;24727;51.974;20.868;2022-10-16T07:26:50;18.08;;;12.35;;
38937;SDS011;24727;51.974;20.868;2022-10-16T07:29:17;22.80;;;12.75;;
38937;SDS011;24727;51.974;20.868;2022-10-16T07:31:45;19.67;;;12.10;;
38937;SDS011;24727;51.974;20.868;2022-10-16T07:34:13;18.35;;;12.30;;
38937;SDS011;24727;51.974;20.868;2022-10-16T07:36:40;19.83;;;12.13;;
38937;SDS011;24727;51.974;20.868;2022-10-16T07:39:08;16.92;;;11.55;;
38937;SDS011;24727;51.974;20.868;2022-10-16T07:41:34;16.92;;;12.38;;
38937;SDS011;24727;51.974;20.868;2022-10-16T07:44:02;18.95;;;12.27;;
38937;SDS011;24727;51.974;20.868;2022-10-16T07:46:29;21.70;;;12.40;;
38937;SDS011;24727;51.974;20.868;2022-10-16T07:48:56;17.38;;;12.63;;
38937;SDS011;24727;51.974;20.868;2022-10-16T07:51:23;21.23;;;12.55;;
38937;SDS011;24727;51.974;20.868;2022-10-16T07:53:50;19.20;;;11.95;;
38937;SDS011;24727;51.974;20.868;2022-10-16T07:56:16;19.27;;;12.38;;
38937;SDS011;24727;51.974;20.868;2022-10-16T07:58:43;19.73;;;11.35;;
38937;SDS011;24727;51.974;20.868;2022-10-16T08:01:11;16.13;;;11.43;;
38937;SDS011;24727;51.974;20.868;2022-10-16T08:03:41;15.63;;;11.70;;
38937;SDS011;24727;51.974;20.868;2022-10-16T08:06:08;16.77;;;11.52;;
38937;SDS011;24727;51.974;20.868;2022-10-16T08:08:34;14.82;;;11.20;;
38937;SDS011;24727;51.974;20.868;2022-10-16T08:11:00;20.55;;;11.43;;
38937;SDS011;24727;51.974;20.868;2022-10-16T08:13:31;15.82;;;11.35;;
38937;SDS011;24727;51.974;20.868;2022-10-16T08:15:57;16.30;;;11.07;;
38937;SDS011;24727;51.974;20.868;2022-10-16T08:18:23;18.02;;;12.13;;
38937;SDS011;24727;51.974;20.868;2022-10-16T08:23:25;17.17;;;11.43;;
38937;SDS011;24727;51.974;20.868;2022-10-16T08:25:52;17.65;;;11.00;;
38937;SDS011;24727;51.974;20.868;2022-10-16T08:28:19;19.25;;;11.32;;
38937;SDS011;24727;51.974;20.868;2022-10-16T08:30:46;20.95;;;11.80;;
38937;SDS011;24727;51.974;20.868;2022-10-16T08:33:12;14.82;;;11.57;;
38937;SDS011;24727;51.974;20.868;2022-10-16T08:35:38;13.55;;;10.15;;
38937;SDS011;24727;51.974;20.868;2022-10-16T08:38:04;17.40;;;11.40;;
38937;SDS011;24727;51.974;20.868;2022-10-16T08:40:32;14.77;;;10.52;;
38937;SDS011;24727;51.974;20.868;2022-10-16T08:43:09;14.07;;;10.05;;
38937;SDS011;24727;51.974;20.868;2022-10-16T08:51:37;15.25;;;10.70;;
38937;SDS011;24727;51.974;20.868;2022-10-16T08:54:46;14.60;;;11.07;;
38937;SDS011;24727;51.974;20.868;2022-10-16T08:57:24;15.60;;;10.77;;
38937;SDS011;24727;51.974;20.868;2022-10-16T08:59:57;15.40;;;10.52;;
38937;SDS011;24727;51.974;20.868;2022-10-16T09:13:21;12.88;;;9.77;;
38937;SDS011;24727;51.974;20.868;2022-10-16T09:16:35;14.45;;;10.38;;
38937;SDS011;24727;51.974;20.868;2022-10-16T09:21:29;14.45;;;9.98;;
38937;SDS011;24727;51.974;20.868;2022-10-16T09:24:04;14.07;;;10.55;;
38937;SDS011;24727;51.974;20.868;2022-10-16T09:26:39;11.93;;;9.25;;
38937;SDS011;24727;51.974;20.868;2022-10-16T09:29:05;14.20;;;10.30;;
38937;SDS011;24727;51.974;20.868;2022-10-16T09:31:32;15.68;;;10.23;;
38937;SDS011;24727;51.974;20.868;2022-10-16T09:34:02;14.82;;;9.95;;
38937;SDS011;24727;51.974;20.868;2022-10-16T09:36:41;16.60;;;9.82;;
38937;SDS011;24727;51.974;20.868;2022-10-16T09:39:10;14.95;;;9.70;;
38937;SDS011;24727;51.974;20.868;2022-10-16T09:41:41;13.65;;;10.43;;
38937;SDS011;24727;51.974;20.868;2022-10-16T09:44:28;13.77;;;10.25;;
38937;SDS011;24727;51.974;20.868;2022-10-16T09:47:30;13.63;;;9.75;;
38937;SDS011;24727;51.974;20.868;2022-10-16T09:49:53;13.82;;;11.00;;
38937;SDS011;24727;51.974;20.868;2022-10-16T09:52:21;13.80;;;10.05;;
38937;SDS011;24727;51.974;20.868;2022-10-16T09:54:54;15.07;;;10.00;;
38937;SDS011;24727;51.974;20.868;2022-10-16T09:57:48;12.38;;;10.98;;
38937;SDS011;24727;51.974;20.868;2022-10-16T10:00:19;15.00;;;9.52;;
38937;SDS011;24727;51.974;20.868;2022-10-16T10:02:47;13.75;;;9.43;;
38937;SDS011;24727;51.974;20.868;2022-10-16T10:05:17;15.32;;;9.93;;
38937;SDS011;24727;51.974;20.868;2022-10-16T10:07:59;14.63;;;10.02;;
38937;SDS011;24727;51.974;20.868;2022-10-16T10:10:32;13.77;;;9.93;;
38937;SDS011;24727;51.974;20.868;2022-10-16T10:12:59;14.90;;;9.68;;
38937;SDS011;24727;51.974;20.868;2022-10-16T10:15:27;12.05;;;9.10;;
38937;SDS011;24727;51.974;20.868;2022-10-16T10:17:58;14.15;;;9.23;;
38937;SDS011;24727;51.974;20.868;2022-10-16T10:20:28;10.95;;;9.73;;
38937;SDS011;24727;51.974;20.868;2022-10-16T10:22:59;15.30;;;9.32;;
38937;SDS011;24727;51.974;20.868;2022-10-16T10:28:14;11.48;;;10.05;;
38937;SDS011;24727;51.974;20.868;2022-10-16T10:38:47;10.60;;;9.18;;
38937;SDS011;24727;51.974;20.868;2022-10-16T10:41:26;16.52;;;9.85;;
38937;SDS011;24727;51.974;20.868;2022-10-16T10:46:45;19.30;;;10.50;;
38937;SDS011;24727;51.974;20.868;2022-10-16T10:52:34;12.98;;;9.02;;
38937;SDS011;24727;51.974;20.868;2022-10-16T11:08:43;16.25;;;9.23;;
38937;SDS011;24727;51.974;20.868;2022-10-16T11:16:30;13.32;;;8.85;;
38937;SDS011;24727;51.974;20.868;2022-10-16T11:19:12;12.15;;;9.23;;
38937;SDS011;24727;51.974;20.868;2022-10-16T11:22:11;11.27;;;8.57;;
38937;SDS011;24727;51.974;20.868;2022-10-16T11:24:58;10.25;;;8.18;;
38937;SDS011;24727;51.974;20.868;2022-10-16T11:27:48;11.25;;;8.82;;
38937;SDS011;24727;51.974;20.868;2022-10-16T11:39:02;11.13;;;8.82;;
38937;SDS011;24727;51.974;20.868;2022-10-16T11:41:42;13.65;;;8.52;;
38937;SDS011;24727;51.974;20.868;2022-10-16T11:49:38;11.98;;;8.40;;
38937;SDS011;24727;51.974;20.868;2022-10-16T11:55:09;11.80;;;8.55;;
38937;SDS011;24727;51.974;20.868;2022-10-16T12:08:53;10.75;;;8.45;;
38937;SDS011;24727;51.974;20.868;2022-10-16T12:14:07;16.58;;;8.73;;
38937;SDS011;24727;51.974;20.868;2022-10-16T12:16:33;12.13;;;8.55;;
38937;SDS011;24727;51.974;20.868;2022-10-16T12:19:09;15.20;;;8.38;;
38937;SDS011;24727;51.974;20.868;2022-10-16T12:21:41;13.23;;;8.45;;
38937;SDS011;24727;51.974;20.868;2022-10-16T12:24:27;12.27;;;8.65;;
38937;SDS011;24727;51.974;20.868;2022-10-16T12:26:59;12.68;;;8.40;;
38937;SDS011;24727;51.974;20.868;2022-10-16T12:31:59;13.60;;;8.35;;
38937;SDS011;24727;51.974;20.868;2022-10-16T12:34:38;11.30;;;8.02;;
38937;SDS011;24727;51.974;20.868;2022-10-16T12:37:30;9.80;;;8.07;;
38937;SDS011;24727;51.974;20.868;2022-10-16T12:39:58;15.02;;;9.38;;
38937;SDS011;24727;51.974;20.868;2022-10-16T12:42:36;9.38;;;8.00;;
38937;SDS011;24727;51.974;20.868;2022-10-16T12:45:21;12.15;;;8.68;;
38937;SDS011;24727;51.974;20.868;2022-10-16T12:47:51;12.02;;;8.88;;
38937;SDS011;24727;51.974;20.868;2022-10-16T12:53:02;13.43;;;8.07;;
38937;SDS011;24727;51.974;20.868;2022-10-16T12:55:51;8.57;;;7.65;;
38937;SDS011;24727;51.974;20.868;2022-10-16T12:59:03;9.10;;;7.60;;
38937;SDS011;24727;51.974;20.868;2022-10-16T13:01:42;10.02;;;7.15;;
38937;SDS011;24727;51.974;20.868;2022-10-16T13:07:31;10.32;;;7.65;;
38937;SDS011;24727;51.974;20.868;2022-10-16T13:10:22;9.35;;;7.13;;
38937;SDS011;24727;51.974;20.868;2022-10-16T13:18:53;9.15;;;7.28;;
38937;SDS011;24727;51.974;20.868;2022-10-16T13:27:10;11.00;;;7.93;;
38937;SDS011;24727;51.974;20.868;2022-10-16T13:30:11;9.50;;;7.45;;
38937;SDS011;24727;51.974;20.868;2022-10-16T13:32:43;9.40;;;7.60;;
38937;SDS011;24727;51.974;20.868;2022-10-16T13:35:23;12.88;;;7.80;;
38937;SDS011;24727;51.974;20.868;2022-10-16T13:37:51;10.18;;;7.97;;
38937;SDS011;24727;51.974;20.868;2022-10-16T13:40:29;8.45;;;7.47;;
38937;SDS011;24727;51.974;20.868;2022-10-16T13:42:56;11.23;;;8.32;;
38937;SDS011;24727;51.974;20.868;2022-10-16T13:45:25;14.32;;;8.75;;
38937;SDS011;24727;51.974;20.868;2022-10-16T13:48:04;11.13;;;7.90;;
38937;SDS011;24727;51.974;20.868;2022-10-16T13:50:34;11.77;;;7.93;;
38937;SDS011;24727;51.974;20.868;2022-10-16T13:53:07;10.63;;;7.85;;
38937;SDS011;24727;51.974;20.868;2022-10-16T13:55:39;9.52;;;7.95;;
38937;SDS011;24727;51.974;20.868;2022-10-16T13:58:10;10.88;;;7.70;;
38937;SDS011;24727;51.974;20.868;2022-10-16T14:00:38;11.43;;;8.18;;
38937;SDS011;24727;51.974;20.868;2022-10-16T14:03:15;12.25;;;8.57;;
38937;SDS011;24727;51.974;20.868;2022-10-16T14:05:46;11.07;;;7.85;;
38937;SDS011;24727;51.974;20.868;2022-10-16T14:08:18;13.30;;;8.00;;
38937;SDS011;24727;51.974;20.868;2022-10-16T14:10:48;11.57;;;8.18;;
38937;SDS011;24727;51.974;20.868;2022-10-16T14:13:23;8.70;;;7.80;;
38937;SDS011;24727;51.974;20.868;2022-10-16T14:15:56;10.07;;;7.97;;
38937;SDS011;24727;51.974;20.868;2022-10-16T14:18:26;10.75;;;7.90;;
38937;SDS011;24727;51.974;20.868;2022-10-16T14:20:53;9.30;;;7.95;;
38937;SDS011;24727;51.974;20.868;2022-10-16T14:23:23;13.90;;;8.30;;
38937;SDS011;24727;51.974;20.868;2022-10-16T14:25:53;11.70;;;7.50;;
38937;SDS011;24727;51.974;20.868;2022-10-16T14:28:20;16.13;;;8.10;;
38937;SDS011;24727;51.974;20.868;2022-10-16T14:30:52;10.25;;;8.40;;
38937;SDS011;24727;51.974;20.868;2022-10-16T14:36:06;11.05;;;8.88;;
38937;SDS011;24727;51.974;20.868;2022-10-16T14:38:42;12.63;;;8.88;;
38937;SDS011;24727;51.974;20.868;2022-10-16T14:41:14;12.82;;;9.00;;
38937;SDS011;24727;51.974;20.868;2022-10-16T14:43:41;13.40;;;8.35;;
38937;SDS011;24727;51.974;20.868;2022-10-16T14:46:13;12.30;;;9.18;;
38937;SDS011;24727;51.974;20.868;2022-10-16T14:48:46;10.82;;;8.60;;
38937;SDS011;24727;51.974;20.868;2022-10-16T14:51:16;10.55;;;9.25;;
38937;SDS011;24727;51.974;20.868;2022-10-16T14:53:45;11.43;;;8.55;;
38937;SDS011;24727;51.974;20.868;2022-10-16T14:56:22;14.15;;;9.90;;
38937;SDS011;24727;51.974;20.868;2022-10-16T14:58:50;15.35;;;10.38;;
38937;SDS011;24727;51.974;20.868;2022-10-16T15:01:17;11.95;;;9.32;;
38937;SDS011;24727;51.974;20.868;2022-10-16T15:03:44;11.93;;;9.60;;
38937;SDS011;24727;51.974;20.868;2022-10-16T15:06:11;15.52;;;8.80;;
38937;SDS011;24727;51.974;20.868;2022-10-16T15:08:38;11.00;;;8.73;;
38937;SDS011;24727;51.974;20.868;2022-10-16T15:11:05;13.07;;;9.98;;
38937;SDS011;24727;51.974;20.868;2022-10-16T15:13:43;18.65;;;9.23;;
38937;SDS011;24727;51.974;20.868;2022-10-16T15:16:13;13.23;;;9.52;;
38937;SDS011;24727;51.974;20.868;2022-10-16T15:18:41;12.70;;;9.23;;
38937;SDS011;24727;51.974;20.868;2022-10-16T15:21:08;15.88;;;9.80;;
38937;SDS011;24727;51.974;20.868;2022-10-16T15:23:58;13.70;;;9.32;;
38937;SDS011;24727;51.974;20.868;2022-10-16T15:26:25;12.68;;;9.50;;
38937;SDS011;24727;51.974;20.868;2022-10-16T15:28:59;13.18;;;8.93;;
38937;SDS011;24727;51.974;20.868;2022-10-16T15:31:25;13.18;;;9.15;;
38937;SDS011;24727;51.974;20.868;2022-10-16T15:33:51;12.63;;;9.73;;
38937;SDS011;24727;51.974;20.868;2022-10-16T15:36:30;20.80;;;9.85;;
38937;SDS011;24727;51.974;20.868;2022-10-16T15:39:05;15.05;;;10.52;;
38937;SDS011;24727;51.974;20.868;2022-10-16T15:41:38;16.45;;;10.35;;
38937;SDS011;24727;51.974;20.868;2022-10-16T15:44:04;17.27;;;10.23;;
38937;SDS011;24727;51.974;20.868;2022-10-16T15:46:29;27.55;;;10.82;;
38937;SDS011;24727;51.974;20.868;2022-10-16T15:48:57;13.63;;;10.18;;
38937;SDS011;24727;51.974;20.868;2022-10-16T15:51:24;13.95;;;9.20;;
38937;SDS011;24727;51.974;20.868;2022-10-16T15:53:55;11.95;;;9.27;;
38937;SDS011;24727;51.974;20.868;2022-10-16T15:56:22;18.67;;;10.13;;
38937;SDS011;24727;51.974;20.868;2022-10-16T15:58:53;21.63;;;10.57;;
38937;SDS011;24727;51.974;20.868;2022-10-16T16:01:19;15.73;;;10.50;;
38937;SDS011;24727;51.974;20.868;2022-10-16T16:03:47;14.90;;;10.95;;
38937;SDS011;24727;51.974;20.868;2022-10-16T16:06:23;20.30;;;9.90;;
38937;SDS011;24727;51.974;20.868;2022-10-16T16:08:49;14.80;;;10.40;;
38937;SDS011;24727;51.974;20.868;2022-10-16T16:11:16;13.75;;;10.18;;
38937;SDS011;24727;51.974;20.868;2022-10-16T16:13:43;16.40;;;10.18;;
38937;SDS011;24727;51.974;20.868;2022-10-16T16:16:11;20.45;;;10.82;;
38937;SDS011;24727;51.974;20.868;2022-10-16T16:18:41;14.77;;;11.25;;
38937;SDS011;24727;51.974;20.868;2022-10-16T16:21:10;16.65;;;10.63;;
38937;SDS011;24727;51.974;20.868;2022-10-16T16:23:39;17.90;;;11.27;;
38937;SDS011;24727;51.974;20.868;2022-10-16T16:26:07;12.60;;;9.32;;
38937;SDS011;24727;51.974;20.868;2022-10-16T16:28:51;15.63;;;11.02;;
38937;SDS011;24727;51.974;20.868;2022-10-16T16:31:18;19.23;;;11.82;;
38937;SDS011;24727;51.974;20.868;2022-10-16T16:33:46;16.70;;;12.27;;
38937;SDS011;24727;51.974;20.868;2022-10-16T16:36:12;13.80;;;10.63;;
38937;SDS011;24727;51.974;20.868;2022-10-16T16:38:38;17.80;;;12.50;;
38937;SDS011;24727;51.974;20.868;2022-10-16T16:41:14;20.65;;;12.65;;
38937;SDS011;24727;51.974;20.868;2022-10-16T16:44:05;17.80;;;12.65;;
38937;SDS011;24727;51.974;20.868;2022-10-16T16:46:40;16.38;;;11.32;;
38937;SDS011;24727;51.974;20.868;2022-10-16T16:49:09;21.48;;;12.68;;
38937;SDS011;24727;51.974;20.868;2022-10-16T16:51:38;19.17;;;11.68;;
38937;SDS011;24727;51.974;20.868;2022-10-16T16:54:05;18.73;;;12.52;;
38937;SDS011;24727;51.974;20.868;2022-10-16T16:56:33;20.65;;;13.10;;